createdAt,value
2022-10-25T00:04:08.887Z,15.30
2022-10-25T00:09:12.662Z,15.30
2022-10-25T00:14:19.175Z,15.30
2022-10-25T00:19:24.201Z,15.30
2022-10-25T00:24:27.992Z,15.40
2022-10-25T00:29:32.176Z,15.40
2022-10-25T00:34:37.167Z,15.40
2022-10-25T00:39:41.223Z,15.40
2022-10-25T00:44:51.645Z,15.40
2022-10-25T00:50:01.986Z,15.40
2022-10-25T00:55:07.506Z,15.40
2022-10-25T01:00:12.202Z,15.40
2022-10-25T01:05:18.960Z,15.40
2022-10-25T01:10:22.621Z,15.40
2022-10-25T01:15:30.506Z,15.40
2022-10-25T01:20:56.718Z,15.30
2022-10-25T01:26:25.706Z,15.30
2022-10-25T01:31:37.623Z,15.30
2022-10-25T01:36:50.386Z,15.30
2022-10-25T01:42:02.174Z,15.30
2022-10-25T01:47:13.628Z,15.30
2022-10-25T01:52:20.964Z,15.30
2022-10-25T01:57:46.216Z,15.20
2022-10-25T02:03:11.048Z,15.20
2022-10-25T02:08:22.277Z,15.20
2022-10-25T02:13:33.149Z,15.20
2022-10-25T02:18:42.602Z,15.20
2022-10-25T02:23:48.028Z,15.20
2022-10-25T02:28:52.663Z,15.20
2022-10-25T02:33:57.728Z,15.20
2022-10-25T02:39:01.762Z,15.10
2022-10-25T02:44:05.641Z,15.20
2022-10-25T02:49:10.705Z,15.20
2022-10-25T02:54:14.299Z,15.10
2022-10-25T02:59:17.944Z,15.10
2022-10-25T03:04:23.013Z,15.10
2022-10-25T03:09:26.710Z,15.00
2022-10-25T03:14:30.301Z,15.00
2022-10-25T03:19:35.419Z,15.00
2022-10-25T03:24:39.119Z,14.90
2022-10-25T03:29:42.720Z,14.90
2022-10-25T03:34:47.719Z,14.90
2022-10-25T03:39:51.336Z,14.90
2022-10-25T03:44:55.057Z,14.80
2022-10-25T03:50:00.100Z,14.80
2022-10-25T03:55:03.872Z,14.80
2022-10-25T04:00:08.494Z,14.80
2022-10-25T04:05:19.329Z,14.80
2022-10-25T04:10:25.123Z,14.80
2022-10-25T04:15:29.548Z,14.80
2022-10-25T04:20:34.587Z,14.70
2022-10-25T04:25:38.237Z,14.70
2022-10-25T04:30:42.048Z,14.70
2022-10-25T04:35:55.322Z,14.70
2022-10-25T04:41:00.455Z,14.70
2022-10-25T04:46:04.717Z,14.60
2022-10-25T04:51:10.867Z,14.60
2022-10-25T04:56:15.018Z,14.50
2022-10-25T05:01:19.763Z,14.60
2022-10-25T05:06:27.604Z,14.50
2022-10-25T05:11:31.290Z,14.50
2022-10-25T05:16:35.423Z,14.50
2022-10-25T05:21:40.436Z,14.50
2022-10-25T05:26:44.077Z,14.40
2022-10-25T05:31:47.790Z,14.40
2022-10-25T05:36:53.066Z,14.40
2022-10-25T05:41:56.716Z,14.40
2022-10-25T05:47:00.344Z,14.40
2022-10-25T05:52:05.437Z,14.40
2022-10-25T05:57:09.158Z,14.40
2022-10-25T06:02:12.890Z,14.40
2022-10-25T06:07:17.905Z,14.40
2022-10-25T06:12:21.552Z,14.40
2022-10-25T06:17:25.187Z,14.30
2022-10-25T06:22:30.161Z,14.40
2022-10-25T06:27:33.807Z,14.40
2022-10-25T06:32:38.164Z,14.40
2022-10-25T06:37:43.269Z,14.40
2022-10-25T06:42:47.221Z,14.40
2022-10-25T06:47:51.204Z,14.40
2022-10-25T06:52:56.225Z,14.40
2022-10-25T06:57:59.921Z,14.40
2022-10-25T07:03:03.539Z,14.40
2022-10-25T07:08:08.566Z,14.40
2022-10-25T07:13:12.148Z,14.40
2022-10-25T07:18:15.778Z,14.50
2022-10-25T07:23:20.740Z,14.50
2022-10-25T07:28:24.566Z,14.50
2022-10-25T07:33:28.182Z,14.50
2022-10-25T07:38:33.166Z,14.50
2022-10-25T07:43:38.520Z,14.50
2022-10-25T07:48:42.298Z,14.60
2022-10-25T07:53:47.542Z,14.50
2022-10-25T07:58:52.000Z,14.60
2022-10-25T08:03:56.848Z,14.60
2022-10-25T08:09:09.780Z,14.60
2022-10-25T08:14:24.118Z,14.60
2022-10-25T08:19:27.795Z,14.70
2022-10-25T08:24:35.274Z,14.70
2022-10-25T08:29:38.932Z,14.70
2022-10-25T08:34:42.576Z,14.80
2022-10-25T08:39:49.970Z,14.80
2022-10-25T08:45:01.542Z,14.90
2022-10-25T08:50:12.087Z,15.10
2022-10-25T08:55:20.644Z,15.10
2022-10-25T09:00:25.520Z,15.20
2022-10-25T09:05:39.264Z,15.30
2022-10-25T09:10:51.768Z,15.70
2022-10-25T09:16:06.081Z,15.80
2022-10-25T09:21:22.171Z,15.70
2022-10-25T09:26:41.228Z,15.80
2022-10-25T09:31:49.204Z,15.90
2022-10-25T09:36:58.329Z,16.10
2022-10-25T09:42:04.834Z,16.00
2022-10-25T09:47:17.757Z,16.00
2022-10-25T09:52:29.103Z,15.90
2022-10-25T09:57:34.599Z,15.80
2022-10-25T10:02:40.243Z,15.70
2022-10-25T10:07:45.890Z,15.60
2022-10-25T10:12:56.569Z,15.60
2022-10-25T10:18:23.099Z,15.60
2022-10-25T10:23:27.410Z,15.60
2022-10-25T10:28:32.824Z,15.60
2022-10-25T10:33:38.498Z,15.60
2022-10-25T10:38:42.273Z,15.70
2022-10-25T10:43:47.346Z,15.70
2022-10-25T10:48:56.814Z,15.70
2022-10-25T10:54:13.301Z,15.70
2022-10-25T10:59:30.820Z,15.80
2022-10-25T11:04:48.519Z,15.70
2022-10-25T11:09:52.193Z,15.80
2022-10-25T11:14:59.996Z,15.80
2022-10-25T11:20:22.824Z,15.90
2022-10-25T11:25:38.571Z,16.00
2022-10-25T11:30:49.495Z,16.10
2022-10-25T11:36:12.786Z,16.10
2022-10-25T11:41:30.441Z,16.20
2022-10-25T11:46:48.732Z,16.30
2022-10-25T11:52:05.705Z,16.40
2022-10-25T11:57:18.153Z,16.60
2022-10-25T12:02:50.883Z,16.80
2022-10-25T12:08:04.124Z,16.90
2022-10-25T12:13:15.798Z,17.20
2022-10-25T12:18:26.457Z,17.40
2022-10-25T12:23:32.779Z,17.50
2022-10-25T12:28:44.622Z,17.50
2022-10-25T12:33:54.955Z,17.70
2022-10-25T12:39:01.204Z,17.80
2022-10-25T12:44:21.413Z,17.80
2022-10-25T12:49:58.310Z,17.90
2022-10-25T12:55:24.325Z,17.80
2022-10-25T13:00:33.344Z,17.70
2022-10-25T13:06:25.838Z,17.80
2022-10-25T13:11:37.249Z,17.70
2022-10-25T13:16:41.081Z,17.70
2022-10-25T13:22:14.056Z,17.60
2022-10-25T13:27:25.604Z,17.70
2022-10-25T13:32:30.510Z,17.70
2022-10-25T13:37:45.576Z,17.70
2022-10-25T13:43:01.035Z,17.60
2022-10-25T13:48:26.297Z,17.60
2022-10-25T13:53:44.291Z,17.60
2022-10-25T13:58:50.958Z,17.50
2022-10-25T14:04:06.080Z,17.50
2022-10-25T14:09:26.751Z,17.40
2022-10-25T14:14:36.130Z,17.40
2022-10-25T14:19:43.560Z,17.40
2022-10-25T14:24:51.517Z,17.40
2022-10-25T14:30:13.884Z,17.40
2022-10-25T14:35:18.016Z,17.30
2022-10-25T14:40:29.028Z,17.30
2022-10-25T14:45:34.482Z,17.30
2022-10-25T14:50:40.023Z,17.30
2022-10-25T14:55:53.047Z,17.30
2022-10-25T15:01:04.940Z,17.30
2022-10-25T15:06:09.100Z,17.20
2022-10-25T15:11:17.904Z,17.20
2022-10-25T15:16:30.613Z,17.20
2022-10-25T15:21:41.161Z,17.10
2022-10-25T15:26:57.669Z,17.10
2022-10-25T15:32:05.556Z,17.10
2022-10-25T15:37:12.515Z,17.10
2022-10-25T15:42:16.550Z,17.10
2022-10-25T15:47:33.037Z,17.00
2022-10-25T15:52:36.795Z,17.00
2022-10-25T15:57:40.920Z,17.00
2022-10-25T16:02:47.252Z,16.90
2022-10-25T16:07:52.152Z,16.90
2022-10-25T16:12:59.609Z,16.80
2022-10-25T16:18:05.109Z,16.80
2022-10-25T16:23:08.810Z,16.70
2022-10-25T16:28:15.304Z,16.60
2022-10-25T16:33:20.393Z,16.60
2022-10-25T16:38:24.038Z,16.50
2022-10-25T16:43:27.696Z,16.50
2022-10-25T16:48:32.659Z,16.40
2022-10-25T16:53:36.304Z,16.40
2022-10-25T16:58:40.074Z,16.30
2022-10-25T17:03:45.116Z,16.30
2022-10-25T17:08:49.271Z,16.20
2022-10-25T17:13:52.934Z,16.10
2022-10-25T17:18:57.978Z,16.10
2022-10-25T17:24:01.692Z,16.00
2022-10-25T17:29:05.652Z,15.90
2022-10-25T17:34:10.974Z,15.90
2022-10-25T17:39:16.822Z,15.80
2022-10-25T17:44:20.544Z,15.80
2022-10-25T17:49:25.553Z,15.70
2022-10-25T17:54:29.163Z,15.70
2022-10-25T17:59:33.151Z,15.60
2022-10-25T18:04:53.646Z,15.60
2022-10-25T18:10:01.931Z,15.50
2022-10-25T18:15:06.155Z,15.50
2022-10-25T18:20:12.107Z,15.50
2022-10-25T18:25:16.103Z,15.40
2022-10-25T18:30:20.083Z,15.40
2022-10-25T18:35:25.333Z,15.30
2022-10-25T18:40:29.060Z,15.30
2022-10-25T18:45:36.062Z,15.30
2022-10-25T18:50:42.500Z,15.20
2022-10-25T18:55:46.560Z,15.20
2022-10-25T19:00:50.487Z,15.20
2022-10-25T19:05:55.586Z,15.10
2022-10-25T19:11:03.138Z,15.00
2022-10-25T19:16:07.669Z,15.00
2022-10-25T19:21:16.712Z,14.90
2022-10-25T19:26:21.611Z,14.90
2022-10-25T19:31:25.415Z,14.90
2022-10-25T19:36:30.610Z,14.80
2022-10-25T19:41:34.273Z,14.80
2022-10-25T19:46:37.864Z,14.80
2022-10-25T19:51:42.866Z,14.70
2022-10-25T19:56:47.311Z,14.70
2022-10-25T20:01:51.078Z,14.60
2022-10-25T20:06:56.279Z,14.60
2022-10-25T20:11:59.988Z,14.60
2022-10-25T20:17:03.638Z,14.50
2022-10-25T20:22:08.841Z,14.50
2022-10-25T20:27:12.516Z,14.50
2022-10-25T20:32:16.133Z,14.50
2022-10-25T20:37:21.134Z,14.40
2022-10-25T20:42:24.901Z,14.40
2022-10-25T20:47:28.762Z,14.40
2022-10-25T20:52:34.762Z,14.40
2022-10-25T20:57:38.470Z,14.40
2022-10-25T21:02:42.192Z,14.30
2022-10-25T21:07:47.587Z,14.30
2022-10-25T21:12:51.436Z,14.30
2022-10-25T21:17:55.210Z,14.30
2022-10-25T21:23:00.237Z,14.30
2022-10-25T21:28:52.420Z,14.30
2022-10-25T21:40:31.465Z,14.20
2022-10-25T21:46:36.500Z,14.20
2022-10-25T21:52:20.096Z,14.20
2022-10-25T21:57:39.564Z,14.20
2022-10-25T22:03:17.596Z,14.20
2022-10-25T22:08:45.046Z,14.10
2022-10-25T22:13:54.563Z,14.10
2022-10-25T22:19:00.113Z,14.10
2022-10-25T22:24:04.070Z,14.10
2022-10-25T22:29:11.630Z,14.10
2022-10-25T22:34:15.319Z,14.10
2022-10-25T22:39:18.959Z,14.00
2022-10-25T22:44:23.975Z,14.00
2022-10-25T22:49:27.615Z,14.10
2022-10-25T22:54:31.266Z,14.00
2022-10-25T22:59:36.324Z,14.00
2022-10-25T23:04:40.021Z,14.00
2022-10-25T23:09:43.654Z,14.00
2022-10-25T23:14:48.716Z,14.00
2022-10-25T23:19:52.435Z,14.00
2022-10-25T23:24:56.025Z,14.00
2022-10-25T23:30:01.128Z,14.00
2022-10-25T23:35:05.203Z,14.00
2022-10-25T23:40:09.849Z,14.00
2022-10-25T23:45:14.904Z,14.00
2022-10-25T23:50:18.519Z,14.00
2022-10-25T23:55:22.103Z,14.00
